sensor_id;sensor_type;location;lat;lon;timestamp;P1;durP1;ratioP1;P2;durP2;ratioP2
32082;SDS011;18597;48.328;7.932;2022-08-01T00:01:38;3.57;;;1.93;;
32082;SDS011;18597;48.328;7.932;2022-08-01T00:04:04;2.30;;;2.20;;
32082;SDS011;18597;48.328;7.932;2022-08-01T00:06:30;2.23;;;1.97;;
32082;SDS011;18597;48.328;7.932;2022-08-01T00:08:56;2.53;;;2.47;;
32082;SDS011;18597;48.328;7.932;2022-08-01T00:11:22;2.90;;;2.70;;
32082;SDS011;18597;48.328;7.932;2022-08-01T00:13:48;2.40;;;2.27;;
32082;SDS011;18597;48.328;7.932;2022-08-01T00:16:14;2.30;;;2.20;;
32082;SDS011;18597;48.328;7.932;2022-08-01T00:18:40;2.53;;;2.33;;
32082;SDS011;18597;48.328;7.932;2022-08-01T00:21:06;2.77;;;2.57;;
32082;SDS011;18597;48.328;7.932;2022-08-01T00:23:32;2.77;;;2.63;;
32082;SDS011;18597;48.328;7.932;2022-08-01T00:25:58;2.97;;;2.50;;
32082;SDS011;18597;48.328;7.932;2022-08-01T00:28:24;2.30;;;2.20;;
32082;SDS011;18597;48.328;7.932;2022-08-01T00:30:50;2.30;;;2.30;;
32082;SDS011;18597;48.328;7.932;2022-08-01T00:33:16;3.03;;;2.73;;
32082;SDS011;18597;48.328;7.932;2022-08-01T00:35:41;2.97;;;2.97;;
32082;SDS011;18597;48.328;7.932;2022-08-01T00:38:07;2.50;;;2.40;;
32082;SDS011;18597;48.328;7.932;2022-08-01T00:40:33;2.50;;;2.40;;
32082;SDS011;18597;48.328;7.932;2022-08-01T00:42:59;2.63;;;2.53;;
32082;SDS011;18597;48.328;7.932;2022-08-01T00:45:25;3.63;;;3.30;;
32082;SDS011;18597;48.328;7.932;2022-08-01T00:47:51;2.43;;;2.23;;
32082;SDS011;18597;48.328;7.932;2022-08-01T00:52:46;3.93;;;2.50;;
32082;SDS011;18597;48.328;7.932;2022-08-01T00:55:12;2.70;;;2.60;;
32082;SDS011;18597;48.328;7.932;2022-08-01T00:57:38;3.23;;;2.93;;
32082;SDS011;18597;48.328;7.932;2022-08-01T01:00:05;3.13;;;2.93;;
32082;SDS011;18597;48.328;7.932;2022-08-01T01:02:32;2.77;;;2.67;;
32082;SDS011;18597;48.328;7.932;2022-08-01T01:04:59;9.67;;;3.70;;
32082;SDS011;18597;48.328;7.932;2022-08-01T01:07:29;2.47;;;2.47;;
32082;SDS011;18597;48.328;7.932;2022-08-01T01:10:30;3.70;;;3.17;;
32082;SDS011;18597;48.328;7.932;2022-08-01T01:13:16;3.00;;;2.90;;
32082;SDS011;18597;48.328;7.932;2022-08-01T01:16:08;2.60;;;2.50;;
32082;SDS011;18597;48.328;7.932;2022-08-01T01:18:43;2.90;;;2.80;;
32082;SDS011;18597;48.328;7.932;2022-08-01T01:24:04;2.83;;;2.70;;
32082;SDS011;18597;48.328;7.932;2022-08-01T01:26:51;3.50;;;3.23;;
32082;SDS011;18597;48.328;7.932;2022-08-01T01:29:32;3.87;;;3.60;;
32082;SDS011;18597;48.328;7.932;2022-08-01T01:32:18;3.20;;;3.10;;
32082;SDS011;18597;48.328;7.932;2022-08-01T01:34:54;3.63;;;3.20;;
32082;SDS011;18597;48.328;7.932;2022-08-01T01:37:21;3.53;;;3.10;;
32082;SDS011;18597;48.328;7.932;2022-08-01T01:39:50;3.10;;;2.90;;
32082;SDS011;18597;48.328;7.932;2022-08-01T01:42:18;2.87;;;2.77;;
32082;SDS011;18597;48.328;7.932;2022-08-01T01:44:46;2.83;;;2.73;;
32082;SDS011;18597;48.328;7.932;2022-08-01T01:47:13;3.90;;;3.53;;
32082;SDS011;18597;48.328;7.932;2022-08-01T01:49:41;3.17;;;3.07;;
32082;SDS011;18597;48.328;7.932;2022-08-01T01:52:12;3.87;;;3.57;;
32082;SDS011;18597;48.328;7.932;2022-08-01T01:54:42;3.17;;;3.07;;
32082;SDS011;18597;48.328;7.932;2022-08-01T01:57:14;2.90;;;2.80;;
32082;SDS011;18597;48.328;7.932;2022-08-01T01:59:42;3.30;;;3.20;;
32082;SDS011;18597;48.328;7.932;2022-08-01T02:02:10;4.30;;;3.10;;
32082;SDS011;18597;48.328;7.932;2022-08-01T02:04:41;3.40;;;3.30;;
32082;SDS011;18597;48.328;7.932;2022-08-01T02:07:10;3.03;;;2.93;;
32082;SDS011;18597;48.328;7.932;2022-08-01T02:09:42;2.87;;;2.77;;
32082;SDS011;18597;48.328;7.932;2022-08-01T02:12:10;2.97;;;2.77;;
32082;SDS011;18597;48.328;7.932;2022-08-01T02:14:37;3.83;;;3.53;;
32082;SDS011;18597;48.328;7.932;2022-08-01T02:17:06;3.60;;;3.40;;
32082;SDS011;18597;48.328;7.932;2022-08-01T02:19:35;4.13;;;3.93;;
32082;SDS011;18597;48.328;7.932;2022-08-01T02:22:08;3.40;;;3.30;;
32082;SDS011;18597;48.328;7.932;2022-08-01T02:24:54;3.63;;;3.53;;
32082;SDS011;18597;48.328;7.932;2022-08-01T02:27:33;3.93;;;3.73;;
32082;SDS011;18597;48.328;7.932;2022-08-01T02:30:05;3.67;;;3.37;;
32082;SDS011;18597;48.328;7.932;2022-08-01T02:32:37;4.53;;;3.87;;
32082;SDS011;18597;48.328;7.932;2022-08-01T02:35:13;3.40;;;3.30;;
32082;SDS011;18597;48.328;7.932;2022-08-01T02:37:48;3.43;;;3.23;;
32082;SDS011;18597;48.328;7.932;2022-08-01T02:40:14;3.57;;;3.27;;
32082;SDS011;18597;48.328;7.932;2022-08-01T02:42:43;3.80;;;3.70;;
32082;SDS011;18597;48.328;7.932;2022-08-01T02:45:14;3.40;;;3.30;;
32082;SDS011;18597;48.328;7.932;2022-08-01T02:47:45;4.60;;;4.30;;
32082;SDS011;18597;48.328;7.932;2022-08-01T02:50:14;4.10;;;3.87;;
32082;SDS011;18597;48.328;7.932;2022-08-01T02:52:43;4.20;;;3.90;;
32082;SDS011;18597;48.328;7.932;2022-08-01T02:55:16;3.90;;;3.77;;
32082;SDS011;18597;48.328;7.932;2022-08-01T02:57:44;4.13;;;3.90;;
32082;SDS011;18597;48.328;7.932;2022-08-01T03:00:13;4.47;;;4.27;;
32082;SDS011;18597;48.328;7.932;2022-08-01T03:02:41;4.10;;;3.90;;
32082;SDS011;18597;48.328;7.932;2022-08-01T03:05:10;4.60;;;4.20;;
32082;SDS011;18597;48.328;7.932;2022-08-01T03:07:39;3.47;;;3.27;;
32082;SDS011;18597;48.328;7.932;2022-08-01T03:10:07;4.60;;;4.13;;
32082;SDS011;18597;48.328;7.932;2022-08-01T03:12:35;3.93;;;3.73;;
32082;SDS011;18597;48.328;7.932;2022-08-01T03:15:04;4.23;;;4.03;;
32082;SDS011;18597;48.328;7.932;2022-08-01T03:17:32;10.83;;;4.90;;
32082;SDS011;18597;48.328;7.932;2022-08-01T03:20:02;4.07;;;3.80;;
32082;SDS011;18597;48.328;7.932;2022-08-01T03:22:29;4.17;;;3.97;;
32082;SDS011;18597;48.328;7.932;2022-08-01T03:24:58;4.40;;;4.13;;
32082;SDS011;18597;48.328;7.932;2022-08-01T03:27:26;4.90;;;4.40;;
32082;SDS011;18597;48.328;7.932;2022-08-01T03:29:54;6.30;;;4.60;;
32082;SDS011;18597;48.328;7.932;2022-08-01T03:32:23;4.70;;;4.40;;
32082;SDS011;18597;48.328;7.932;2022-08-01T03:34:51;4.33;;;4.10;;
32082;SDS011;18597;48.328;7.932;2022-08-01T03:37:21;4.83;;;4.57;;
32082;SDS011;18597;48.328;7.932;2022-08-01T03:39:55;6.60;;;4.30;;
32082;SDS011;18597;48.328;7.932;2022-08-01T03:42:35;5.27;;;4.80;;
32082;SDS011;18597;48.328;7.932;2022-08-01T03:45:15;4.70;;;4.40;;
32082;SDS011;18597;48.328;7.932;2022-08-01T03:47:52;9.57;;;4.40;;
32082;SDS011;18597;48.328;7.932;2022-08-01T03:50:24;4.40;;;4.20;;
32082;SDS011;18597;48.328;7.932;2022-08-01T03:52:52;4.57;;;4.37;;
32082;SDS011;18597;48.328;7.932;2022-08-01T03:55:22;3.97;;;3.77;;
32082;SDS011;18597;48.328;7.932;2022-08-01T03:57:49;5.00;;;4.60;;
32082;SDS011;18597;48.328;7.932;2022-08-01T04:00:16;4.60;;;4.30;;
32082;SDS011;18597;48.328;7.932;2022-08-01T04:02:45;4.13;;;3.97;;
32082;SDS011;18597;48.328;7.932;2022-08-01T04:05:15;6.63;;;4.10;;
32082;SDS011;18597;48.328;7.932;2022-08-01T04:07:45;4.67;;;4.30;;
32082;SDS011;18597;48.328;7.932;2022-08-01T04:10:12;4.57;;;4.37;;
32082;SDS011;18597;48.328;7.932;2022-08-01T04:12:38;4.20;;;4.00;;
32082;SDS011;18597;48.328;7.932;2022-08-01T04:15:05;5.07;;;4.77;;
32082;SDS011;18597;48.328;7.932;2022-08-01T04:17:31;5.33;;;4.97;;
32082;SDS011;18597;48.328;7.932;2022-08-01T04:19:57;4.70;;;4.43;;
32082;SDS011;18597;48.328;7.932;2022-08-01T04:22:23;5.17;;;4.83;;
32082;SDS011;18597;48.328;7.932;2022-08-01T04:24:51;4.77;;;4.37;;
32082;SDS011;18597;48.328;7.932;2022-08-01T04:27:22;6.57;;;4.70;;
32082;SDS011;18597;48.328;7.932;2022-08-01T04:29:54;5.50;;;5.10;;
32082;SDS011;18597;48.328;7.932;2022-08-01T04:32:24;4.93;;;4.63;;
32082;SDS011;18597;48.328;7.932;2022-08-01T04:34:55;6.83;;;5.30;;
32082;SDS011;18597;48.328;7.932;2022-08-01T04:37:25;5.50;;;5.20;;
32082;SDS011;18597;48.328;7.932;2022-08-01T04:39:53;5.60;;;4.50;;
32082;SDS011;18597;48.328;7.932;2022-08-01T04:42:21;4.73;;;4.43;;
32082;SDS011;18597;48.328;7.932;2022-08-01T04:44:47;8.73;;;4.50;;
32082;SDS011;18597;48.328;7.932;2022-08-01T04:47:13;4.80;;;4.50;;
32082;SDS011;18597;48.328;7.932;2022-08-01T04:49:40;7.80;;;4.83;;
32082;SDS011;18597;48.328;7.932;2022-08-01T04:52:06;12.80;;;5.20;;
32082;SDS011;18597;48.328;7.932;2022-08-01T04:54:33;5.10;;;4.70;;
32082;SDS011;18597;48.328;7.932;2022-08-01T04:57:04;7.43;;;4.63;;
32082;SDS011;18597;48.328;7.932;2022-08-01T04:59:33;5.90;;;5.50;;
32082;SDS011;18597;48.328;7.932;2022-08-01T05:02:09;5.87;;;5.37;;
32082;SDS011;18597;48.328;7.932;2022-08-01T05:04:39;6.57;;;5.97;;
32082;SDS011;18597;48.328;7.932;2022-08-01T05:07:06;6.20;;;5.70;;
32082;SDS011;18597;48.328;7.932;2022-08-01T05:09:35;7.10;;;6.27;;
32082;SDS011;18597;48.328;7.932;2022-08-01T05:12:03;19.83;;;11.50;;
32082;SDS011;18597;48.328;7.932;2022-08-01T05:14:31;7.13;;;6.53;;
32082;SDS011;18597;48.328;7.932;2022-08-01T05:16:58;25.17;;;15.00;;
32082;SDS011;18597;48.328;7.932;2022-08-01T05:19:28;11.33;;;8.07;;
32082;SDS011;18597;48.328;7.932;2022-08-01T05:21:56;8.20;;;5.20;;
32082;SDS011;18597;48.328;7.932;2022-08-01T05:24:25;5.00;;;4.60;;
32082;SDS011;18597;48.328;7.932;2022-08-01T05:26:53;6.53;;;4.40;;
32082;SDS011;18597;48.328;7.932;2022-08-01T05:29:22;5.63;;;5.23;;
32082;SDS011;18597;48.328;7.932;2022-08-01T05:31:48;14.93;;;9.70;;
32082;SDS011;18597;48.328;7.932;2022-08-01T05:34:15;5.80;;;4.47;;
32082;SDS011;18597;48.328;7.932;2022-08-01T05:36:42;3.93;;;3.83;;
32082;SDS011;18597;48.328;7.932;2022-08-01T05:39:08;4.37;;;4.17;;
32082;SDS011;18597;48.328;7.932;2022-08-01T05:41:35;4.13;;;3.70;;
32082;SDS011;18597;48.328;7.932;2022-08-01T05:44:02;6.13;;;4.10;;
32082;SDS011;18597;48.328;7.932;2022-08-01T05:46:29;4.50;;;4.10;;
32082;SDS011;18597;48.328;7.932;2022-08-01T05:48:56;8.77;;;3.60;;
32082;SDS011;18597;48.328;7.932;2022-08-01T05:51:23;3.17;;;3.00;;
32082;SDS011;18597;48.328;7.932;2022-08-01T05:53:49;2.97;;;2.77;;
32082;SDS011;18597;48.328;7.932;2022-08-01T05:56:16;2.80;;;2.80;;
32082;SDS011;18597;48.328;7.932;2022-08-01T05:58:43;2.60;;;2.50;;
32082;SDS011;18597;48.328;7.932;2022-08-01T06:01:09;3.70;;;3.50;;
32082;SDS011;18597;48.328;7.932;2022-08-01T06:03:35;2.70;;;2.60;;
32082;SDS011;18597;48.328;7.932;2022-08-01T06:06:02;2.47;;;2.37;;
32082;SDS011;18597;48.328;7.932;2022-08-01T06:08:28;2.43;;;2.43;;
32082;SDS011;18597;48.328;7.932;2022-08-01T06:10:54;4.32;;;2.35;;
32082;SDS011;18597;48.328;7.932;2022-08-01T06:13:21;2.20;;;2.10;;
32082;SDS011;18597;48.328;7.932;2022-08-01T06:15:47;2.42;;;2.20;;
32082;SDS011;18597;48.328;7.932;2022-08-01T06:18:13;2.35;;;2.15;;
32082;SDS011;18597;48.328;7.932;2022-08-01T06:20:39;2.28;;;2.17;;
32082;SDS011;18597;48.328;7.932;2022-08-01T06:23:06;2.25;;;2.25;;
32082;SDS011;18597;48.328;7.932;2022-08-01T06:25:32;2.00;;;2.00;;
32082;SDS011;18597;48.328;7.932;2022-08-01T06:27:58;2.05;;;1.92;;
32082;SDS011;18597;48.328;7.932;2022-08-01T06:30:24;2.35;;;2.25;;
32082;SDS011;18597;48.328;7.932;2022-08-01T06:32:51;2.53;;;2.42;;
32082;SDS011;18597;48.328;7.932;2022-08-01T06:35:17;2.20;;;2.10;;
32082;SDS011;18597;48.328;7.932;2022-08-01T06:37:43;1.63;;;1.63;;
32082;SDS011;18597;48.328;7.932;2022-08-01T06:40:11;3.22;;;2.30;;
32082;SDS011;18597;48.328;7.932;2022-08-01T06:42:38;2.20;;;2.03;;
32082;SDS011;18597;48.328;7.932;2022-08-01T06:45:04;2.00;;;1.85;;
32082;SDS011;18597;48.328;7.932;2022-08-01T06:47:33;2.03;;;2.03;;
32082;SDS011;18597;48.328;7.932;2022-08-01T06:49:59;2.08;;;1.98;;
32082;SDS011;18597;48.328;7.932;2022-08-01T06:52:25;2.00;;;2.00;;
32082;SDS011;18597;48.328;7.932;2022-08-01T06:54:51;1.80;;;1.70;;
32082;SDS011;18597;48.328;7.932;2022-08-01T06:57:17;1.63;;;1.60;;
32082;SDS011;18597;48.328;7.932;2022-08-01T06:59:44;1.95;;;1.85;;
32082;SDS011;18597;48.328;7.932;2022-08-01T07:02:10;1.90;;;1.90;;
32082;SDS011;18597;48.328;7.932;2022-08-01T07:04:36;2.58;;;2.28;;
32082;SDS011;18597;48.328;7.932;2022-08-01T07:07:01;1.52;;;1.52;;
32082;SDS011;18597;48.328;7.932;2022-08-01T07:09:28;2.65;;;1.52;;
32082;SDS011;18597;48.328;7.932;2022-08-01T07:11:53;2.38;;;1.00;;
32082;SDS011;18597;48.328;7.932;2022-08-01T07:14:20;1.48;;;1.48;;
32082;SDS011;18597;48.328;7.932;2022-08-01T07:16:47;1.45;;;1.42;;
32082;SDS011;18597;48.328;7.932;2022-08-01T07:19:13;0.88;;;0.88;;
32082;SDS011;18597;48.328;7.932;2022-08-01T07:21:39;0.90;;;0.90;;
32082;SDS011;18597;48.328;7.932;2022-08-01T07:24:06;1.13;;;0.95;;
32082;SDS011;18597;48.328;7.932;2022-08-01T07:26:34;1.27;;;1.27;;
32082;SDS011;18597;48.328;7.932;2022-08-01T07:29:00;0.77;;;0.77;;
32082;SDS011;18597;48.328;7.932;2022-08-01T07:31:25;1.00;;;0.88;;
32082;SDS011;18597;48.328;7.932;2022-08-01T07:33:51;0.80;;;0.80;;
32082;SDS011;18597;48.328;7.932;2022-08-01T07:36:18;0.80;;;0.80;;
32082;SDS011;18597;48.328;7.932;2022-08-01T07:38:44;0.70;;;0.70;;
32082;SDS011;18597;48.328;7.932;2022-08-01T07:41:11;1.00;;;1.00;;
32082;SDS011;18597;48.328;7.932;2022-08-01T07:43:37;1.17;;;1.08;;
32082;SDS011;18597;48.328;7.932;2022-08-01T07:46:03;0.82;;;0.82;;
32082;SDS011;18597;48.328;7.932;2022-08-01T07:48:29;0.93;;;0.93;;
32082;SDS011;18597;48.328;7.932;2022-08-01T07:50:56;6.22;;;1.17;;
32082;SDS011;18597;48.328;7.932;2022-08-01T07:53:21;0.73;;;0.73;;
32082;SDS011;18597;48.328;7.932;2022-08-01T07:55:48;6.88;;;1.27;;
32082;SDS011;18597;48.328;7.932;2022-08-01T07:58:14;0.60;;;0.60;;
32082;SDS011;18597;48.328;7.932;2022-08-01T08:00:41;0.65;;;0.65;;
32082;SDS011;18597;48.328;7.932;2022-08-01T08:03:07;1.10;;;1.10;;
32082;SDS011;18597;48.328;7.932;2022-08-01T08:05:33;2.83;;;1.10;;
32082;SDS011;18597;48.328;7.932;2022-08-01T08:08:01;0.80;;;0.80;;
32082;SDS011;18597;48.328;7.932;2022-08-01T08:10:30;2.28;;;1.10;;
32082;SDS011;18597;48.328;7.932;2022-08-01T08:12:56;1.10;;;1.10;;
32082;SDS011;18597;48.328;7.932;2022-08-01T08:15:22;1.30;;;1.30;;
32082;SDS011;18597;48.328;7.932;2022-08-01T08:17:48;1.52;;;1.05;;
32082;SDS011;18597;48.328;7.932;2022-08-01T08:20:14;1.25;;;1.25;;
32082;SDS011;18597;48.328;7.932;2022-08-01T08:22:40;1.27;;;1.27;;
32082;SDS011;18597;48.328;7.932;2022-08-01T08:25:06;1.08;;;1.08;;
32082;SDS011;18597;48.328;7.932;2022-08-01T08:27:33;1.00;;;1.00;;
32082;SDS011;18597;48.328;7.932;2022-08-01T08:30:00;1.75;;;1.20;;
32082;SDS011;18597;48.328;7.932;2022-08-01T08:32:27;1.75;;;1.13;;
32082;SDS011;18597;48.328;7.932;2022-08-01T08:34:53;1.33;;;1.33;;
32082;SDS011;18597;48.328;7.932;2022-08-01T08:37:19;1.40;;;1.40;;
32082;SDS011;18597;48.328;7.932;2022-08-01T08:39:45;1.55;;;1.45;;
32082;SDS011;18597;48.328;7.932;2022-08-01T08:42:11;1.33;;;1.20;;
32082;SDS011;18597;48.328;7.932;2022-08-01T08:44:38;1.85;;;1.33;;
32082;SDS011;18597;48.328;7.932;2022-08-01T08:47:06;2.47;;;1.40;;
32082;SDS011;18597;48.328;7.932;2022-08-01T08:49:35;1.25;;;1.25;;
32082;SDS011;18597;48.328;7.932;2022-08-01T08:52:03;1.30;;;1.30;;
32082;SDS011;18597;48.328;7.932;2022-08-01T08:54:30;1.38;;;1.35;;
32082;SDS011;18597;48.328;7.932;2022-08-01T08:56:57;1.55;;;1.20;;
32082;SDS011;18597;48.328;7.932;2022-08-01T08:59:25;1.48;;;1.15;;
32082;SDS011;18597;48.328;7.932;2022-08-01T09:01:53;0.95;;;0.95;;
32082;SDS011;18597;48.328;7.932;2022-08-01T09:04:20;1.10;;;1.10;;
32082;SDS011;18597;48.328;7.932;2022-08-01T09:06:48;2.85;;;1.20;;
32082;SDS011;18597;48.328;7.932;2022-08-01T09:09:14;1.40;;;1.35;;
32082;SDS011;18597;48.328;7.932;2022-08-01T09:11:40;1.70;;;1.70;;
32082;SDS011;18597;48.328;7.932;2022-08-01T09:14:08;1.85;;;1.52;;
32082;SDS011;18597;48.328;7.932;2022-08-01T09:16:37;3.15;;;1.70;;
32082;SDS011;18597;48.328;7.932;2022-08-01T09:21:54;7.32;;;2.20;;
32082;SDS011;18597;48.328;7.932;2022-08-01T09:24:23;2.17;;;2.08;;
32082;SDS011;18597;48.328;7.932;2022-08-01T09:26:52;2.40;;;2.33;;
32082;SDS011;18597;48.328;7.932;2022-08-01T09:29:20;3.33;;;2.15;;
32082;SDS011;18597;48.328;7.932;2022-08-01T09:31:49;3.22;;;3.13;;
32082;SDS011;18597;48.328;7.932;2022-08-01T09:34:23;2.10;;;2.08;;
32082;SDS011;18597;48.328;7.932;2022-08-01T09:36:53;1.90;;;1.90;;
32082;SDS011;18597;48.328;7.932;2022-08-01T09:39:24;2.93;;;2.73;;
32082;SDS011;18597;48.328;7.932;2022-08-01T09:42:18;2.57;;;2.47;;
32082;SDS011;18597;48.328;7.932;2022-08-01T09:44:48;3.30;;;3.10;;
32082;SDS011;18597;48.328;7.932;2022-08-01T09:47:14;2.93;;;2.93;;
32082;SDS011;18597;48.328;7.932;2022-08-01T09:49:42;2.63;;;2.43;;
32082;SDS011;18597;48.328;7.932;2022-08-01T09:52:14;3.00;;;2.90;;
32082;SDS011;18597;48.328;7.932;2022-08-01T09:54:43;8.03;;;2.97;;
32082;SDS011;18597;48.328;7.932;2022-08-01T09:57:20;3.33;;;3.13;;
32082;SDS011;18597;48.328;7.932;2022-08-01T09:59:48;3.47;;;3.17;;
32082;SDS011;18597;48.328;7.932;2022-08-01T10:02:48;3.63;;;3.40;;
32082;SDS011;18597;48.328;7.932;2022-08-01T10:05:06;4.93;;;3.27;;
32082;SDS011;18597;48.328;7.932;2022-08-01T10:07:35;2.67;;;2.57;;
32082;SDS011;18597;48.328;7.932;2022-08-01T10:10:21;4.40;;;3.80;;
32082;SDS011;18597;48.328;7.932;2022-08-01T10:12:47;2.80;;;2.57;;
32082;SDS011;18597;48.328;7.932;2022-08-01T10:15:16;3.07;;;2.87;;
32082;SDS011;18597;48.328;7.932;2022-08-01T10:17:46;2.77;;;2.60;;
32082;SDS011;18597;48.328;7.932;2022-08-01T10:20:19;3.00;;;3.00;;
32082;SDS011;18597;48.328;7.932;2022-08-01T10:22:48;3.20;;;3.00;;
32082;SDS011;18597;48.328;7.932;2022-08-01T10:25:17;3.63;;;3.30;;
32082;SDS011;18597;48.328;7.932;2022-08-01T10:27:44;5.13;;;4.77;;
32082;SDS011;18597;48.328;7.932;2022-08-01T10:30:13;2.33;;;2.23;;
32082;SDS011;18597;48.328;7.932;2022-08-01T10:32:40;8.00;;;2.70;;
32082;SDS011;18597;48.328;7.932;2022-08-01T10:35:08;2.97;;;2.77;;
32082;SDS011;18597;48.328;7.932;2022-08-01T10:37:34;2.90;;;2.80;;
32082;SDS011;18597;48.328;7.932;2022-08-01T10:40:01;3.10;;;2.97;;
32082;SDS011;18597;48.328;7.932;2022-08-01T10:42:27;3.13;;;3.03;;
32082;SDS011;18597;48.328;7.932;2022-08-01T10:44:54;3.20;;;3.10;;
32082;SDS011;18597;48.328;7.932;2022-08-01T10:47:23;2.47;;;2.30;;
32082;SDS011;18597;48.328;7.932;2022-08-01T10:50:02;3.43;;;3.20;;
32082;SDS011;18597;48.328;7.932;2022-08-01T10:53:24;3.33;;;3.13;;
32082;SDS011;18597;48.328;7.932;2022-08-01T10:58:30;3.17;;;2.97;;
32082;SDS011;18597;48.328;7.932;2022-08-01T11:01:18;3.03;;;2.60;;
32082;SDS011;18597;48.328;7.932;2022-08-01T11:04:00;2.43;;;2.43;;
32082;SDS011;18597;48.328;7.932;2022-08-01T11:09:15;2.90;;;2.70;;
32082;SDS011;18597;48.328;7.932;2022-08-01T11:12:00;3.23;;;2.93;;
32082;SDS011;18597;48.328;7.932;2022-08-01T11:17:39;2.57;;;2.47;;
32082;SDS011;18597;48.328;7.932;2022-08-01T11:20:14;3.50;;;3.33;;
32082;SDS011;18597;48.328;7.932;2022-08-01T11:30:45;2.80;;;2.77;;
32082;SDS011;18597;48.328;7.932;2022-08-01T11:33:14;2.70;;;2.70;;
32082;SDS011;18597;48.328;7.932;2022-08-01T11:38:47;3.20;;;3.00;;
32082;SDS011;18597;48.328;7.932;2022-08-01T11:41:31;2.67;;;2.10;;
32082;SDS011;18597;48.328;7.932;2022-08-01T11:44:03;2.90;;;2.90;;
32082;SDS011;18597;48.328;7.932;2022-08-01T11:46:50;3.37;;;3.03;;
32082;SDS011;18597;48.328;7.932;2022-08-01T11:52:14;3.37;;;3.27;;
32082;SDS011;18597;48.328;7.932;2022-08-01T11:54:46;2.70;;;2.50;;
32082;SDS011;18597;48.328;7.932;2022-08-01T11:57:18;3.00;;;2.90;;
32082;SDS011;18597;48.328;7.932;2022-08-01T11:59:48;5.80;;;3.00;;
32082;SDS011;18597;48.328;7.932;2022-08-01T12:02:26;3.20;;;2.97;;
32082;SDS011;18597;48.328;7.932;2022-08-01T12:04:59;4.17;;;2.83;;
32082;SDS011;18597;48.328;7.932;2022-08-01T12:07:29;2.60;;;2.40;;
32082;SDS011;18597;48.328;7.932;2022-08-01T12:10:05;5.10;;;2.90;;
32082;SDS011;18597;48.328;7.932;2022-08-01T12:12:37;2.77;;;2.67;;
32082;SDS011;18597;48.328;7.932;2022-08-01T12:15:10;2.90;;;2.53;;
32082;SDS011;18597;48.328;7.932;2022-08-01T12:17:38;3.73;;;2.90;;
32082;SDS011;18597;48.328;7.932;2022-08-01T12:20:07;2.27;;;2.27;;
32082;SDS011;18597;48.328;7.932;2022-08-01T12:22:35;3.03;;;2.40;;
32082;SDS011;18597;48.328;7.932;2022-08-01T12:25:06;6.37;;;5.77;;
32082;SDS011;18597;48.328;7.932;2022-08-01T12:27:36;3.40;;;3.20;;
32082;SDS011;18597;48.328;7.932;2022-08-01T12:30:05;7.15;;;6.50;;
32082;SDS011;18597;48.328;7.932;2022-08-01T12:32:34;2.50;;;2.40;;
32082;SDS011;18597;48.328;7.932;2022-08-01T12:35:05;3.67;;;3.42;;
32082;SDS011;18597;48.328;7.932;2022-08-01T12:37:36;2.65;;;2.55;;
32082;SDS011;18597;48.328;7.932;2022-08-01T12:40:09;2.17;;;2.17;;
32082;SDS011;18597;48.328;7.932;2022-08-01T12:42:40;3.35;;;2.97;;
32082;SDS011;18597;48.328;7.932;2022-08-01T12:45:10;2.28;;;2.17;;
32082;SDS011;18597;48.328;7.932;2022-08-01T12:47:40;3.53;;;2.50;;
32082;SDS011;18597;48.328;7.932;2022-08-01T12:50:07;2.92;;;2.15;;
32082;SDS011;18597;48.328;7.932;2022-08-01T12:52:38;2.38;;;2.20;;
32082;SDS011;18597;48.328;7.932;2022-08-01T12:55:05;2.42;;;2.42;;
32082;SDS011;18597;48.328;7.932;2022-08-01T12:57:44;2.70;;;2.63;;
32082;SDS011;18597;48.328;7.932;2022-08-01T13:02:50;3.92;;;2.65;;
32082;SDS011;18597;48.328;7.932;2022-08-01T13:05:50;2.70;;;2.60;;
32082;SDS011;18597;48.328;7.932;2022-08-01T13:11:00;2.42;;;2.33;;
32082;SDS011;18597;48.328;7.932;2022-08-01T13:13:38;2.55;;;2.55;;
32082;SDS011;18597;48.328;7.932;2022-08-01T13:16:14;3.35;;;3.00;;
32082;SDS011;18597;48.328;7.932;2022-08-01T13:18:51;4.50;;;2.75;;
32082;SDS011;18597;48.328;7.932;2022-08-01T13:21:21;2.70;;;2.60;;
32082;SDS011;18597;48.328;7.932;2022-08-01T13:24:07;3.85;;;3.75;;
32082;SDS011;18597;48.328;7.932;2022-08-01T13:26:54;3.72;;;3.53;;
32082;SDS011;18597;48.328;7.932;2022-08-01T13:29:43;2.22;;;2.20;;
32082;SDS011;18597;48.328;7.932;2022-08-01T13:32:12;2.60;;;2.50;;
32082;SDS011;18597;48.328;7.932;2022-08-01T13:34:43;3.85;;;2.40;;
32082;SDS011;18597;48.328;7.932;2022-08-01T13:37:09;3.90;;;3.27;;
32082;SDS011;18597;48.328;7.932;2022-08-01T13:39:35;2.83;;;2.67;;
32082;SDS011;18597;48.328;7.932;2022-08-01T13:42:16;2.73;;;2.53;;
32082;SDS011;18597;48.328;7.932;2022-08-01T13:44:42;3.23;;;3.03;;
32082;SDS011;18597;48.328;7.932;2022-08-01T13:47:11;3.10;;;2.90;;
32082;SDS011;18597;48.328;7.932;2022-08-01T13:49:37;3.27;;;3.07;;
32082;SDS011;18597;48.328;7.932;2022-08-01T13:52:03;2.67;;;2.67;;
32082;SDS011;18597;48.328;7.932;2022-08-01T13:54:31;4.90;;;3.33;;
32082;SDS011;18597;48.328;7.932;2022-08-01T13:56:57;5.53;;;3.30;;
32082;SDS011;18597;48.328;7.932;2022-08-01T13:59:24;5.43;;;2.47;;
32082;SDS011;18597;48.328;7.932;2022-08-01T14:01:50;3.10;;;2.80;;
32082;SDS011;18597;48.328;7.932;2022-08-01T14:04:16;3.23;;;3.00;;
32082;SDS011;18597;48.328;7.932;2022-08-01T14:06:42;3.37;;;3.17;;
32082;SDS011;18597;48.328;7.932;2022-08-01T14:09:08;3.10;;;2.90;;
32082;SDS011;18597;48.328;7.932;2022-08-01T14:11:34;2.53;;;2.43;;
32082;SDS011;18597;48.328;7.932;2022-08-01T14:14:00;2.93;;;2.83;;
32082;SDS011;18597;48.328;7.932;2022-08-01T14:16:26;3.17;;;3.08;;
32082;SDS011;18597;48.328;7.932;2022-08-01T14:18:52;2.87;;;2.83;;
32082;SDS011;18597;48.328;7.932;2022-08-01T14:21:18;2.47;;;2.37;;
32082;SDS011;18597;48.328;7.932;2022-08-01T14:23:44;2.87;;;2.70;;
32082;SDS011;18597;48.328;7.932;2022-08-01T14:26:11;2.67;;;2.37;;
32082;SDS011;18597;48.328;7.932;2022-08-01T14:28:37;2.30;;;2.20;;
32082;SDS011;18597;48.328;7.932;2022-08-01T14:31:04;2.70;;;2.50;;
32082;SDS011;18597;48.328;7.932;2022-08-01T14:33:32;2.67;;;2.58;;
32082;SDS011;18597;48.328;7.932;2022-08-01T14:35:58;2.40;;;2.22;;
32082;SDS011;18597;48.328;7.932;2022-08-01T14:38:24;2.70;;;2.60;;
32082;SDS011;18597;48.328;7.932;2022-08-01T14:40:50;2.72;;;2.63;;
32082;SDS011;18597;48.328;7.932;2022-08-01T14:43:17;2.70;;;2.60;;
32082;SDS011;18597;48.328;7.932;2022-08-01T14:45:43;2.33;;;2.23;;
32082;SDS011;18597;48.328;7.932;2022-08-01T14:48:09;2.10;;;2.10;;
32082;SDS011;18597;48.328;7.932;2022-08-01T14:50:35;2.80;;;2.57;;
32082;SDS011;18597;48.328;7.932;2022-08-01T14:53:01;2.60;;;2.50;;
32082;SDS011;18597;48.328;7.932;2022-08-01T14:55:27;3.03;;;2.20;;
32082;SDS011;18597;48.328;7.932;2022-08-01T14:57:53;2.30;;;2.30;;
32082;SDS011;18597;48.328;7.932;2022-08-01T15:00:19;2.70;;;2.50;;
32082;SDS011;18597;48.328;7.932;2022-08-01T15:02:46;3.30;;;2.30;;
32082;SDS011;18597;48.328;7.932;2022-08-01T15:05:12;2.07;;;1.97;;
32082;SDS011;18597;48.328;7.932;2022-08-01T15:07:38;1.90;;;1.90;;
32082;SDS011;18597;48.328;7.932;2022-08-01T15:10:04;4.90;;;2.00;;
32082;SDS011;18597;48.328;7.932;2022-08-01T15:12:31;2.57;;;2.17;;
32082;SDS011;18597;48.328;7.932;2022-08-01T15:14:58;3.40;;;1.67;;
32082;SDS011;18597;48.328;7.932;2022-08-01T15:17:26;3.00;;;2.20;;
32082;SDS011;18597;48.328;7.932;2022-08-01T15:19:56;1.77;;;1.67;;
32082;SDS011;18597;48.328;7.932;2022-08-01T15:22:24;2.20;;;2.10;;
32082;SDS011;18597;48.328;7.932;2022-08-01T15:25:22;1.77;;;1.77;;
32082;SDS011;18597;48.328;7.932;2022-08-01T15:27:54;6.70;;;1.73;;
32082;SDS011;18597;48.328;7.932;2022-08-01T15:30:19;2.13;;;1.97;;
32082;SDS011;18597;48.328;7.932;2022-08-01T15:32:45;2.30;;;2.20;;
32082;SDS011;18597;48.328;7.932;2022-08-01T15:35:11;6.63;;;2.13;;
32082;SDS011;18597;48.328;7.932;2022-08-01T15:37:37;2.00;;;2.00;;